createdAt,value
2023-03-03T00:01:02.204Z,62.84
2023-03-03T00:03:29.162Z,61.76
2023-03-03T00:05:56.133Z,61.92
2023-03-03T00:08:23.222Z,61.98
2023-03-03T00:10:50.569Z,63.04
2023-03-03T00:13:24.577Z,62.32
2023-03-03T00:15:52.828Z,62.63
2023-03-03T00:18:35.344Z,63.32
2023-03-03T00:21:08.838Z,61.68
2023-03-03T00:23:40.487Z,62.95
2023-03-03T00:26:30.804Z,62.89
2023-03-03T00:28:57.881Z,62.80
2023-03-03T00:31:35.323Z,62.45
2023-03-03T00:34:17.627Z,62.73
2023-03-03T00:36:44.928Z,61.91
2023-03-03T00:39:38.676Z,61.28
2023-03-03T00:42:17.867Z,61.43
2023-03-03T00:45:00.891Z,63.11
2023-03-03T00:47:43.624Z,61.51
2023-03-03T00:50:10.480Z,61.12
2023-03-03T00:52:44.653Z,60.83
2023-03-03T00:55:12.314Z,61.97
2023-03-03T00:57:39.297Z,62.62
2023-03-03T01:00:10.228Z,62.42
2023-03-03T01:02:37.305Z,61.36
2023-03-03T01:05:04.638Z,61.42
2023-03-03T01:07:31.703Z,61.49
2023-03-03T01:09:58.623Z,62.11
2023-03-03T01:12:27.082Z,62.10
2023-03-03T01:14:55.364Z,61.63
2023-03-03T01:17:22.582Z,62.29
2023-03-03T01:19:49.824Z,63.01
2023-03-03T01:22:16.856Z,62.06
2023-03-03T01:24:46.839Z,61.71
2023-03-03T01:27:13.779Z,61.53
2023-03-03T01:29:40.709Z,60.71
2023-03-03T01:32:07.751Z,60.50
2023-03-03T01:34:34.774Z,60.57
2023-03-03T01:37:01.781Z,60.34
2023-03-03T01:39:28.701Z,60.19
2023-03-03T01:41:55.789Z,60.20
2023-03-03T01:44:22.882Z,60.03
2023-03-03T01:47:11.834Z,59.54
2023-03-03T01:49:55.814Z,59.46
2023-03-03T01:52:34.436Z,59.26
2023-03-03T01:55:10.030Z,60.71
2023-03-03T01:57:52.524Z,61.11
2023-03-03T02:00:20.170Z,60.36
2023-03-03T02:02:47.558Z,59.75
2023-03-03T02:05:16.433Z,59.77
2023-03-03T02:07:44.892Z,59.71
2023-03-03T02:10:16.155Z,59.58
2023-03-03T02:12:56.039Z,59.34
2023-03-03T02:15:32.222Z,59.93
2023-03-03T02:18:04.999Z,59.46
2023-03-03T02:21:14.338Z,58.92
2023-03-03T02:23:58.424Z,59.25
2023-03-03T02:26:29.931Z,59.31
2023-03-03T02:29:01.870Z,59.46
2023-03-03T02:31:31.522Z,59.31
2023-03-03T02:33:58.920Z,59.31
2023-03-03T02:36:33.032Z,59.81
2023-03-03T02:39:10.693Z,60.22
2023-03-03T02:42:02.916Z,59.33
2023-03-03T02:44:36.782Z,59.49
2023-03-03T02:47:04.107Z,59.33
2023-03-03T02:49:34.934Z,59.46
2023-03-03T02:52:05.912Z,59.14
2023-03-03T02:54:33.338Z,59.32
2023-03-03T02:57:03.151Z,59.59
2023-03-03T02:59:30.573Z,59.27
2023-03-03T03:02:01.201Z,58.77
2023-03-03T03:04:28.898Z,59.24
2023-03-03T03:06:56.564Z,59.09
2023-03-03T03:09:28.165Z,59.14
2023-03-03T03:11:55.637Z,59.38
2023-03-03T03:14:25.904Z,59.10
2023-03-03T03:16:54.479Z,59.06
2023-03-03T03:19:21.591Z,59.31
2023-03-03T03:21:48.754Z,58.97
2023-03-03T03:24:18.043Z,58.83
2023-03-03T03:26:50.093Z,58.95
2023-03-03T03:29:17.618Z,58.98
2023-03-03T03:31:44.676Z,58.83
2023-03-03T03:34:11.650Z,58.95
2023-03-03T03:36:39.823Z,59.06
2023-03-03T03:39:07.328Z,59.14
2023-03-03T03:41:37.509Z,60.04
2023-03-03T03:44:05.011Z,60.46
2023-03-03T03:46:31.958Z,60.65
2023-03-03T03:48:59.080Z,59.84
2023-03-03T03:51:26.736Z,59.17
2023-03-03T03:53:53.693Z,59.45
2023-03-03T03:56:20.654Z,60.59
2023-03-03T03:58:51.565Z,60.83
2023-03-03T04:01:18.694Z,61.46
2023-03-03T04:03:49.234Z,62.37
2023-03-03T04:06:19.525Z,60.66
2023-03-03T04:08:47.001Z,60.79
2023-03-03T04:11:14.892Z,60.41
2023-03-03T04:13:42.465Z,59.75
2023-03-03T04:16:10.238Z,59.81
2023-03-03T04:18:38.935Z,59.63
2023-03-03T04:21:06.370Z,59.66
2023-03-03T04:23:33.905Z,59.58
2023-03-03T04:26:02.192Z,59.46
2023-03-03T04:28:29.462Z,59.55
2023-03-03T04:30:56.808Z,59.42
2023-03-03T04:33:25.280Z,59.17
2023-03-03T04:35:52.570Z,59.19
2023-03-03T04:38:19.667Z,59.17
2023-03-03T04:40:47.885Z,59.33
2023-03-03T04:43:16.873Z,59.27
2023-03-03T04:45:44.528Z,59.18
2023-03-03T04:48:12.063Z,59.25
2023-03-03T04:50:39.096Z,59.15
2023-03-03T04:53:06.076Z,59.08
2023-03-03T04:55:33.366Z,59.06
2023-03-03T04:58:00.715Z,59.03
2023-03-03T05:00:28.088Z,58.94
2023-03-03T05:02:55.135Z,58.97
2023-03-03T05:05:23.985Z,58.72
2023-03-03T05:07:50.920Z,59.08
2023-03-03T05:10:18.036Z,58.95
2023-03-03T05:12:44.962Z,59.08
2023-03-03T05:15:12.415Z,58.98
2023-03-03T05:17:39.368Z,59.02
2023-03-03T05:20:08.429Z,58.85
2023-03-03T05:22:35.404Z,58.71
2023-03-03T05:25:02.427Z,58.96
2023-03-03T05:27:29.355Z,59.05
2023-03-03T05:29:56.750Z,59.04
2023-03-03T05:32:23.742Z,58.98
2023-03-03T05:34:52.489Z,59.02
2023-03-03T05:37:19.443Z,59.02
2023-03-03T05:39:46.393Z,59.16
2023-03-03T05:42:14.446Z,59.15
2023-03-03T05:44:41.382Z,58.91
2023-03-03T05:47:09.716Z,58.97
2023-03-03T05:49:36.808Z,59.08
2023-03-03T05:52:04.063Z,59.08
2023-03-03T05:54:31.083Z,59.18
2023-03-03T05:56:58.017Z,58.99
2023-03-03T05:59:25.157Z,58.93
2023-03-03T06:01:52.193Z,59.30
2023-03-03T06:04:19.222Z,59.13
2023-03-03T06:06:46.183Z,59.09
2023-03-03T06:09:13.269Z,59.19
2023-03-03T06:11:40.229Z,58.91
2023-03-03T06:14:07.346Z,59.24
2023-03-03T06:16:34.388Z,59.02
2023-03-03T06:19:01.424Z,59.15
2023-03-03T06:21:28.454Z,59.00
2023-03-03T06:23:55.381Z,59.18
2023-03-03T06:26:23.037Z,59.05
2023-03-03T06:28:50.223Z,59.06
2023-03-03T06:31:17.508Z,59.15
2023-03-03T06:33:44.483Z,59.31
2023-03-03T06:36:12.138Z,59.18
2023-03-03T06:38:39.071Z,59.16
2023-03-03T06:41:08.307Z,60.65
2023-03-03T06:43:36.366Z,62.37
2023-03-03T06:46:07.238Z,63.30
2023-03-03T06:48:34.627Z,63.47
2023-03-03T06:51:09.342Z,64.72
2023-03-03T06:53:37.047Z,65.14
2023-03-03T06:56:09.696Z,65.92
2023-03-03T06:58:36.710Z,65.07
2023-03-03T07:01:12.656Z,63.86
2023-03-03T07:03:39.586Z,63.82
2023-03-03T07:06:23.349Z,64.56
2023-03-03T07:08:52.721Z,62.68
2023-03-03T07:11:22.478Z,61.78
2023-03-03T07:13:54.822Z,61.41
2023-03-03T07:16:27.872Z,61.20
2023-03-03T07:18:58.691Z,61.32
2023-03-03T07:21:36.228Z,60.80
2023-03-03T07:24:27.898Z,60.73
2023-03-03T07:27:06.236Z,60.73
2023-03-03T07:29:34.212Z,61.11
2023-03-03T07:32:02.729Z,61.01
2023-03-03T07:34:35.826Z,60.83
2023-03-03T07:37:14.010Z,60.91
2023-03-03T07:39:47.347Z,60.85
2023-03-03T07:42:28.737Z,61.14
2023-03-03T07:45:29.456Z,60.91
2023-03-03T07:48:17.537Z,60.96
2023-03-03T07:50:45.063Z,61.13
2023-03-03T07:53:34.853Z,60.94
2023-03-03T07:56:02.364Z,61.29
2023-03-03T07:58:39.724Z,61.13
2023-03-03T08:01:30.709Z,61.13
2023-03-03T08:03:58.522Z,61.16
2023-03-03T08:06:41.770Z,61.04
2023-03-03T08:09:11.717Z,61.17
2023-03-03T08:11:58.418Z,60.97
2023-03-03T08:14:34.720Z,61.08
2023-03-03T08:17:02.688Z,61.49
2023-03-03T08:19:31.063Z,61.41
2023-03-03T08:22:17.125Z,61.26
2023-03-03T08:24:44.124Z,61.39
2023-03-03T08:27:11.629Z,61.55
2023-03-03T08:29:38.613Z,61.46
2023-03-03T08:32:05.860Z,61.83
2023-03-03T08:34:32.897Z,61.63
2023-03-03T08:36:59.878Z,61.79
2023-03-03T08:39:26.903Z,61.83
2023-03-03T08:41:53.882Z,61.89
2023-03-03T08:44:20.849Z,61.73
2023-03-03T08:46:47.919Z,61.95
2023-03-03T08:49:14.952Z,61.89
2023-03-03T08:51:42.038Z,62.20
2023-03-03T08:54:08.971Z,62.05
2023-03-03T08:56:36.037Z,62.28
2023-03-03T08:59:03.408Z,62.20
2023-03-03T09:01:32.501Z,62.44
2023-03-03T09:03:59.826Z,62.02
2023-03-03T09:06:26.808Z,62.61
2023-03-03T09:08:54.875Z,62.35
2023-03-03T09:11:28.818Z,62.29
2023-03-03T09:14:15.128Z,63.03
2023-03-03T09:16:54.202Z,62.48
2023-03-03T09:19:26.690Z,62.46
2023-03-03T09:21:56.523Z,62.33
2023-03-03T09:24:36.953Z,62.90
2023-03-03T09:27:27.266Z,62.77
2023-03-03T09:29:54.207Z,63.11
2023-03-03T09:32:39.751Z,62.90
2023-03-03T09:35:36.590Z,63.12
2023-03-03T09:38:33.179Z,62.95
2023-03-03T09:41:38.098Z,62.93
2023-03-03T09:45:08.631Z,63.49
2023-03-03T09:48:38.344Z,63.22
2023-03-03T09:51:49.321Z,63.14
2023-03-03T09:54:50.893Z,63.38
2023-03-03T09:57:19.865Z,63.08
2023-03-03T10:00:17.479Z,63.08
2023-03-03T10:03:03.656Z,63.47
2023-03-03T10:06:17.950Z,63.72
2023-03-03T10:09:46.786Z,63.76
2023-03-03T10:13:01.483Z,64.13
2023-03-03T10:16:12.836Z,63.92
2023-03-03T10:18:49.525Z,63.53
2023-03-03T10:21:30.123Z,63.45
2023-03-03T10:24:24.803Z,63.59
2023-03-03T10:27:14.287Z,63.43
2023-03-03T10:30:24.188Z,63.49
2023-03-03T10:33:10.923Z,63.61
2023-03-03T10:36:07.311Z,63.40
2023-03-03T10:39:20.405Z,63.71
2023-03-03T10:42:16.233Z,63.80
2023-03-03T10:45:05.201Z,63.91
2023-03-03T10:48:16.307Z,63.84
2023-03-03T10:51:22.227Z,64.14
2023-03-03T10:54:03.077Z,63.93
2023-03-03T10:57:02.207Z,63.79
2023-03-03T10:59:57.479Z,63.93
2023-03-03T11:02:34.840Z,64.04
2023-03-03T11:05:47.986Z,64.11
2023-03-03T11:08:23.566Z,64.09
2023-03-03T11:11:09.852Z,64.32
2023-03-03T11:14:05.718Z,64.36
2023-03-03T11:17:01.523Z,63.64
2023-03-03T11:19:50.052Z,64.90
2023-03-03T11:22:38.280Z,64.82
2023-03-03T11:25:40.459Z,65.08
2023-03-03T11:28:19.119Z,64.09
2023-03-03T11:31:20.979Z,65.42
2023-03-03T11:34:34.625Z,65.17
2023-03-03T11:37:14.836Z,64.36
2023-03-03T11:39:44.093Z,64.57
2023-03-03T11:42:46.969Z,64.84
2023-03-03T11:45:20.788Z,64.81
2023-03-03T11:48:12.837Z,65.58
2023-03-03T11:50:56.279Z,65.41
2023-03-03T11:54:05.553Z,66.20
2023-03-03T11:56:44.816Z,65.00
2023-03-03T12:00:08.216Z,66.00
2023-03-03T12:03:18.323Z,66.13
2023-03-03T12:06:21.692Z,66.43
2023-03-03T12:09:28.965Z,66.18
2023-03-03T12:12:13.371Z,65.60
2023-03-03T12:15:08.471Z,66.74
2023-03-03T12:18:02.857Z,65.93
2023-03-03T12:21:24.411Z,65.28
2023-03-03T12:24:08.501Z,65.12
2023-03-03T12:27:00.214Z,65.67
2023-03-03T12:29:52.062Z,65.87
2023-03-03T12:32:44.176Z,65.81
2023-03-03T12:36:05.159Z,66.10
2023-03-03T12:38:56.408Z,64.42
2023-03-03T12:41:59.652Z,65.61
2023-03-03T12:45:02.133Z,64.77
2023-03-03T12:47:33.471Z,63.53
2023-03-03T12:50:46.210Z,65.97
2023-03-03T12:53:55.380Z,65.26
2023-03-03T12:56:55.269Z,66.43
2023-03-03T12:59:47.820Z,66.39
2023-03-03T13:02:29.691Z,66.70
2023-03-03T13:05:29.177Z,66.26
2023-03-03T13:08:22.767Z,65.30
2023-03-03T13:11:12.618Z,66.06
2023-03-03T13:13:57.985Z,64.90
2023-03-03T13:16:45.817Z,65.96
2023-03-03T13:19:27.314Z,65.63
2023-03-03T13:22:21.998Z,64.58
2023-03-03T13:25:09.373Z,63.89
2023-03-03T13:27:42.025Z,63.49
2023-03-03T13:30:25.249Z,65.24
2023-03-03T13:33:30.788Z,65.60
2023-03-03T13:36:09.055Z,64.96
2023-03-03T13:38:56.443Z,64.93
2023-03-03T13:41:44.564Z,64.73
2023-03-03T13:44:25.666Z,63.68
2023-03-03T13:47:19.481Z,64.11
2023-03-03T13:49:56.921Z,62.88
2023-03-03T13:52:29.039Z,63.70
2023-03-03T13:55:18.796Z,63.81
2023-03-03T13:57:46.948Z,64.33
2023-03-03T14:00:27.334Z,63.24
2023-03-03T14:03:05.833Z,64.57
2023-03-03T14:05:49.043Z,62.79
2023-03-03T14:09:19.891Z,65.01
2023-03-03T14:12:07.878Z,64.44
2023-03-03T14:14:59.226Z,64.05
2023-03-03T14:17:49.924Z,62.83
2023-03-03T14:20:29.026Z,63.68
2023-03-03T14:23:04.006Z,63.57
2023-03-03T14:25:52.631Z,64.71
2023-03-03T14:28:23.995Z,62.99
2023-03-03T14:30:58.642Z,63.32
2023-03-03T14:33:32.265Z,63.28
2023-03-03T14:35:59.490Z,61.97
2023-03-03T14:38:32.651Z,63.17
2023-03-03T14:41:18.230Z,63.93
2023-03-03T14:44:24.036Z,63.47
2023-03-03T14:47:11.469Z,63.23
2023-03-03T14:49:40.445Z,61.53
2023-03-03T14:52:16.437Z,63.33
2023-03-03T14:54:56.540Z,62.85
2023-03-03T14:57:46.998Z,63.60
2023-03-03T15:00:14.810Z,61.32
2023-03-03T15:02:52.595Z,62.83
2023-03-03T15:05:22.512Z,60.82
2023-03-03T15:08:11.073Z,63.28
2023-03-03T15:10:45.956Z,61.37
2023-03-03T15:13:22.044Z,61.99
2023-03-03T15:16:24.207Z,61.31
2023-03-03T15:19:19.349Z,62.47
2023-03-03T15:21:51.746Z,60.07
2023-03-03T15:24:49.645Z,61.90
2023-03-03T15:27:28.814Z,60.05
2023-03-03T15:30:22.388Z,60.90
2023-03-03T15:33:01.630Z,59.21
2023-03-03T15:35:48.596Z,60.21
2023-03-03T15:39:16.152Z,61.61
2023-03-03T15:42:35.805Z,61.40
2023-03-03T15:45:46.723Z,60.92
2023-03-03T15:48:43.648Z,61.05
2023-03-03T15:51:25.453Z,59.78
2023-03-03T15:54:15.015Z,59.73
2023-03-03T15:56:52.740Z,58.63
2023-03-03T15:59:26.331Z,58.81
2023-03-03T16:02:10.571Z,58.98
2023-03-03T16:04:45.824Z,58.32
2023-03-03T16:07:58.607Z,58.10
2023-03-03T16:11:09.379Z,57.92
2023-03-03T16:14:10.704Z,57.75
2023-03-03T16:17:15.702Z,58.24
2023-03-03T16:20:01.201Z,57.16
2023-03-03T16:23:07.763Z,57.65
2023-03-03T16:26:04.962Z,57.96
2023-03-03T16:28:59.660Z,57.53
2023-03-03T16:31:58.470Z,56.71
2023-03-03T16:34:56.086Z,57.28
2023-03-03T16:37:34.949Z,56.63
2023-03-03T16:40:23.277Z,57.26
2023-03-03T16:43:09.601Z,56.47
2023-03-03T16:45:40.094Z,56.45
2023-03-03T16:48:45.872Z,56.69
2023-03-03T16:51:28.237Z,56.34
2023-03-03T16:54:38.099Z,56.67
2023-03-03T16:57:28.750Z,55.81
2023-03-03T17:00:21.321Z,55.72
2023-03-03T17:03:45.391Z,56.09
2023-03-03T17:06:34.949Z,55.74
2023-03-03T17:09:50.114Z,55.87
2023-03-03T17:12:53.829Z,55.72
2023-03-03T17:15:31.134Z,55.58
2023-03-03T17:19:04.522Z,55.39
2023-03-03T17:22:06.080Z,55.54
2023-03-03T17:24:48.838Z,55.45
2023-03-03T17:27:31.604Z,55.61
2023-03-03T17:30:40.592Z,55.53
2023-03-03T17:33:39.279Z,54.82
2023-03-03T17:37:12.890Z,55.40
2023-03-03T17:40:12.375Z,55.17
2023-03-03T17:43:01.022Z,54.85
2023-03-03T17:45:34.066Z,55.24
2023-03-03T17:48:34.330Z,55.16
2023-03-03T17:51:24.649Z,54.94
2023-03-03T17:54:27.932Z,54.88
2023-03-03T17:57:22.520Z,54.90
2023-03-03T18:00:33.107Z,54.89
2023-03-03T18:03:15.219Z,54.55
2023-03-03T18:06:30.165Z,54.77
2023-03-03T18:09:48.778Z,54.88
2023-03-03T18:12:22.284Z,54.67
2023-03-03T18:15:05.265Z,54.92
2023-03-03T18:18:03.478Z,54.52
2023-03-03T18:21:07.521Z,54.33
2023-03-03T18:23:45.194Z,54.50
2023-03-03T18:26:36.055Z,54.68
2023-03-03T18:29:23.591Z,54.34
2023-03-03T18:31:53.828Z,54.79
2023-03-03T18:34:21.189Z,54.72
2023-03-03T18:37:08.116Z,54.54
2023-03-03T18:39:47.881Z,54.50
2023-03-03T18:42:27.252Z,54.62
2023-03-03T18:44:54.212Z,54.69
2023-03-03T18:47:59.223Z,54.08
2023-03-03T18:50:37.965Z,54.40
2023-03-03T18:53:10.985Z,54.35
2023-03-03T18:55:50.016Z,54.16
2023-03-03T18:58:17.289Z,54.83
2023-03-03T19:00:52.798Z,54.61
2023-03-03T19:04:17.098Z,54.26
2023-03-03T19:07:04.344Z,54.85
2023-03-03T19:09:57.068Z,54.22
2023-03-03T19:12:55.434Z,54.33
2023-03-03T19:15:33.554Z,54.54
2023-03-03T19:18:03.210Z,54.96
2023-03-03T19:20:48.650Z,54.46
2023-03-03T19:23:24.389Z,54.80
2023-03-03T19:26:25.536Z,54.50
2023-03-03T19:29:42.633Z,54.32
2023-03-03T19:32:28.505Z,54.25
2023-03-03T19:35:10.229Z,54.46
2023-03-03T19:37:54.898Z,54.60
2023-03-03T19:40:36.738Z,54.81
2023-03-03T19:43:46.969Z,54.54
2023-03-03T19:46:40.943Z,54.32
2023-03-03T19:49:46.234Z,54.56
2023-03-03T19:52:37.533Z,54.48
2023-03-03T19:55:04.322Z,54.44
2023-03-03T19:57:58.723Z,54.61
2023-03-03T20:00:49.665Z,54.17
2023-03-03T20:03:59.622Z,54.56
2023-03-03T20:06:43.693Z,54.45
2023-03-03T20:09:27.629Z,54.38
2023-03-03T20:12:10.009Z,54.35
2023-03-03T20:14:59.086Z,54.85
2023-03-03T20:17:52.142Z,54.51
2023-03-03T20:20:33.948Z,54.56
2023-03-03T20:23:24.931Z,54.59
2023-03-03T20:26:20.656Z,54.63
2023-03-03T20:29:19.797Z,54.66
2023-03-03T20:31:57.577Z,54.71
2023-03-03T20:35:05.305Z,54.58
2023-03-03T20:38:12.594Z,54.51
2023-03-03T20:41:02.426Z,54.50
2023-03-03T20:43:48.758Z,54.56
2023-03-03T20:46:41.188Z,54.38
2023-03-03T20:49:49.782Z,54.57
2023-03-03T20:52:47.009Z,54.63
2023-03-03T20:55:17.218Z,54.81
2023-03-03T20:58:03.904Z,54.83
2023-03-03T21:01:05.068Z,54.58
2023-03-03T21:03:42.313Z,54.92
2023-03-03T21:06:16.087Z,54.90
2023-03-03T21:08:55.045Z,54.73
2023-03-03T21:11:31.245Z,54.87
2023-03-03T21:14:10.104Z,55.07
2023-03-03T21:16:37.462Z,55.03
2023-03-03T21:19:23.578Z,54.88
2023-03-03T21:21:51.584Z,54.94
2023-03-03T21:24:22.583Z,55.24
2023-03-03T21:26:49.478Z,55.21
2023-03-03T21:29:30.306Z,54.83
2023-03-03T21:31:59.919Z,55.04
2023-03-03T21:34:36.850Z,54.81
2023-03-03T21:37:34.772Z,54.66
2023-03-03T21:40:23.261Z,54.91
2023-03-03T21:42:51.479Z,55.06
2023-03-03T21:45:23.620Z,55.19
2023-03-03T21:47:52.021Z,55.22
2023-03-03T21:50:21.960Z,55.06
2023-03-03T21:52:49.145Z,55.17
2023-03-03T21:55:16.243Z,55.20
2023-03-03T21:57:43.281Z,55.22
2023-03-03T22:00:11.249Z,55.05
2023-03-03T22:02:38.513Z,55.11
2023-03-03T22:05:07.537Z,55.33
2023-03-03T22:07:34.713Z,55.18
2023-03-03T22:10:01.815Z,55.15
2023-03-03T22:12:28.753Z,55.31
2023-03-03T22:14:55.895Z,55.08
2023-03-03T22:17:25.388Z,55.04
2023-03-03T22:19:52.649Z,55.09
2023-03-03T22:22:19.667Z,55.28
2023-03-03T22:24:46.614Z,55.08
2023-03-03T22:27:14.453Z,55.16
2023-03-03T22:29:41.506Z,55.15
2023-03-03T22:32:08.558Z,55.16
2023-03-03T22:34:36.062Z,55.17
2023-03-03T22:37:03.244Z,55.26
2023-03-03T22:39:30.245Z,55.34
2023-03-03T22:41:57.238Z,55.10
2023-03-03T22:44:24.394Z,55.15
2023-03-03T22:46:51.470Z,55.26
2023-03-03T22:49:18.702Z,54.94
2023-03-03T22:51:45.712Z,54.93
2023-03-03T22:54:12.866Z,55.12
2023-03-03T22:56:39.895Z,55.16
2023-03-03T22:59:06.863Z,55.06
2023-03-03T23:01:33.775Z,55.02
2023-03-03T23:04:01.331Z,55.24
2023-03-03T23:06:28.645Z,55.31
2023-03-03T23:08:55.624Z,55.07
2023-03-03T23:11:24.668Z,55.13
2023-03-03T23:13:51.766Z,55.15
2023-03-03T23:16:19.033Z,55.04
2023-03-03T23:18:46.495Z,55.14
2023-03-03T23:21:13.485Z,55.18
2023-03-03T23:23:40.439Z,55.13
2023-03-03T23:26:07.548Z,55.56
2023-03-03T23:28:34.659Z,55.19
2023-03-03T23:31:01.957Z,55.21
2023-03-03T23:33:29.148Z,55.27
2023-03-03T23:35:56.543Z,55.29
2023-03-03T23:38:23.669Z,55.27
2023-03-03T23:40:50.620Z,55.07
2023-03-03T23:43:17.606Z,55.23
2023-03-03T23:45:44.634Z,55.29
2023-03-03T23:48:11.884Z,55.06
2023-03-03T23:50:39.223Z,55.25
2023-03-03T23:53:07.474Z,55.36
2023-03-03T23:55:36.052Z,55.32
2023-03-03T23:58:03.738Z,55.55
